Schedule Details


Flight Number: CTN4436
Departure: Franjo Tudman (LDZA) at 06:45
Arrival: Munich (EDDM) at 08:00
Route: PODET L603 KFT L173 MORED Q112 NAPSA

Weather Information
LDZA 080000Z 25001KT CAVOK 19/17 Q1018 NOSIG
EDDM 080020Z VRB01KT CAVOK 14/13 Q1021 NOSIG
Schedule Frequency

Route Map